Latest Weather Observations for Temora

IDN60801

Issued at 7:32 am EDT Monday 20 February 2017 (issued every 30 minutes, with the page automatically refreshed every 10 minutes)

About weather observations | Map of weather stations | Latest weather observations for NSW | Other Formats
Station Details ID: 073151 Name: TEMORA AIRPORT Lat: -34.43 Lon: 147.51 Height: 280.5 m
Data from the previous 72 hours. | See also: Recent months at Temora
Date/Time
EDT
Temp
°C
App
Temp
°C
Dew
Point
°C
Rel
Hum
%
Delta-T
°C
Wind Press
QNH
hPa
Press
MSL
hPa
Rain since
9am
mm
Dir  Spd
km/h
Gust
km/h
Spd
kts
Gust
kts
20/07:30am 7.6 6.6 5.7 88 0.9 CALM 0 0 0 0 1014.7 1013.3 0.0
20/07:00am 6.9 5.9 5.7 92 0.5 CALM 0 0 0 0 1014.2 1012.8 0.0
20/06:30am 7.7 5.7 6.3 91 0.6 WSW 6 7 3 4 1013.7 1012.3 0.0
20/06:00am 6.1 3.5 4.4 89 0.7 WNW 7 9 4 5 1013.3 1011.9 0.0
20/05:30am 6.6 3.7 4.6 87 0.9 W 9 11 5 6 1013.0 1011.6 0.0
20/05:00am 6.8 4.0 5.0 88 0.8 W 9 11 5 6 1012.7 1011.3 0.0
20/04:30am 8.5 5.8 5.8 83 1.2 W 9 11 5 6 1012.5 1011.0 0.0
20/04:00am 9.2 6.6 6.3 82 1.4 WSW 9 11 5 6 1012.4 1010.9 0.0
20/03:30am 9.5 7.3 6.0 79 1.6 W 7 9 4 5 1012.1 1010.6 0.0
20/03:00am 10.5 9.9 7.2 80 1.6 CALM 0 0 0 0 1012.1 1010.6 0.0
20/02:30am 10.5 8.6 6.8 78 1.8 NW 6 7 3 4 1012.2 1010.7 0.0
20/02:00am 11.1 8.3 6.8 75 2.1 SSW 11 15 6 8 1012.5 1011.0 0.0
20/01:30am 11.7 7.2 7.0 73 2.3 SSW 20 32 11 17 1012.8 1011.4 0.0
20/01:00am 13.2 8.8 8.9 75 2.2 SSW 22 32 12 17 1012.4 1010.9 0.0
20/12:30am 14.3 9.6 9.1 71 2.7 SSW 24 35 13 19 1012.2 1010.7 0.0
20/12:00am 16.2 11.7 6.9 54 4.7 SW 20 32 11 17 1011.7 1010.2 0.0
 
Date/Time
EDT
Temp
°C
App
Temp
°C
Dew
Point
°C
Rel
Hum
%
Delta-T
°C
Wind Press
QNH
hPa
Press
MSL
hPa
Rain since
9am
mm
Dir  Spd
km/h
Gust
km/h
Spd
kts
Gust
kts
19/11:30pm 16.7 11.1 3.7 42 6.1 W 22 35 12 19 1011.5 1010.0 0.0
19/11:00pm 13.6 10.3 2.5 47 5.0 WNW 9 11 5 6 1011.2 1009.7 0.0
19/10:30pm 14.1 10.7 2.0 44 5.4 W 9 11 5 6 1011.2 1009.7 0.0
19/10:00pm 14.3 10.5 1.6 42 5.6 W 11 13 6 7 1011.2 1009.7 0.0
19/09:30pm 16.2 12.0 1.9 38 6.5 WSW 13 20 7 11 1011.1 1009.6 0.0
19/09:00pm 16.7 12.1 1.6 36 6.8 W 15 20 8 11 1010.8 1009.4 0.0
19/08:30pm 18.0 12.4 1.5 33 7.5 WSW 20 28 11 15 1010.5 1009.1 0.0
19/08:00pm 18.7 13.2 0.8 30 8.1 WSW 19 32 10 17 1010.2 1008.8 0.0
19/07:30pm 20.0 14.0 1.0 28 8.7 W 22 32 12 17 1009.8 1008.4 0.0
19/07:00pm 20.9 15.3 1.2 27 9.1 W 20 32 11 17 1009.4 1007.9 0.0
19/06:30pm 22.1 16.5 1.2 25 9.8 W 20 37 11 20 1009.2 1007.7 0.0
19/06:00pm 22.5 16.5 0.9 24 10.1 W 22 35 12 19 1009.0 1007.5 0.0
19/05:30pm 23.0 17.3 0.8 23 10.4 W 20 43 11 23 1009.0 1007.5 0.0
19/05:19pm 22.6 15.3 -0.2 22 10.4 W 28 46 15 25 1009.0 1007.5 0.0
19/05:00pm 23.1 16.6 0.2 22 10.6 WNW 24 35 13 19 1009.0 1007.5 0.0
19/04:30pm 23.1 17.5 1.5 24 10.2 W 20 33 11 18 1009.2 1007.7 0.0
19/04:00pm 23.0 17.3 0.8 23 10.4 W 20 33 11 18 1009.4 1007.9 0.0
19/03:30pm 22.7 16.7 1.1 24 10.1 WSW 22 32 12 17 1009.8 1008.4 0.0
19/03:00pm 22.3 16.7 1.3 25 9.9 SW 20 32 11 17 1010.0 1008.6 0.0
19/02:30pm 22.1 15.7 1.2 25 9.8 W 24 35 13 19 1010.5 1009.1 0.0
19/02:00pm 21.7 15.7 0.8 25 9.7 W 22 35 12 19 1010.8 1009.4 0.0
19/01:30pm 21.8 15.4 0.9 25 9.7 WSW 24 39 13 21 1011.1 1009.6 0.0
19/01:00pm 20.7 13.9 1.1 27 9.0 WSW 26 43 14 23 1011.4 1009.9 0.0
19/12:30pm 21.8 14.9 0.4 24 9.8 W 26 39 14 21 1011.7 1010.2 0.0
19/12:00pm 19.2 13.2 0.8 29 8.3 SW 22 32 12 17 1012.2 1010.7 0.0
19/11:30am 20.3 13.6 1.7 29 8.6 SW 26 41 14 22 1012.2 1010.7 0.0
19/11:00am 20.0 14.6 1.4 29 8.6 WSW 19 28 10 15 1012.4 1010.9 0.0
19/10:30am 19.3 14.8 2.2 32 8.0 WSW 15 24 8 13 1012.3 1010.8 0.0
19/10:00am 18.6 14.1 2.0 33 7.7 SW 15 22 8 12 1012.4 1010.9 0.0
19/09:30am 17.7 12.5 2.5 36 7.0 SSW 19 26 10 14 1012.3 1010.8 0.0
19/09:00am 15.8 11.9 3.3 43 5.8 SW 13 20 7 11 1012.4 1010.9 2.4
19/08:30am 13.2 9.2 3.0 50 4.6 WSW 13 17 7 9 1012.4 1010.9 2.4
19/08:00am 10.5 8.2 4.6 67 2.7 WNW 6 9 3 5 1012.2 1010.7 2.4
19/07:30am 8.4 7.1 4.2 75 1.9 CALM 0 4 0 2 1011.8 1010.3 2.4
19/07:00am 5.3 3.6 2.1 80 1.3 CALM 0 0 0 0 1011.5 1010.0 2.4
19/06:30am 4.5 1.4 0.3 74 1.6 WSW 6 9 3 5 1010.9 1009.5 2.4
19/06:00am 7.8 4.7 1.4 64 2.6 SW 7 11 4 6 1010.7 1009.3 2.4
19/05:30am 7.7 4.2 1.3 64 2.6 SW 9 11 5 6 1010.6 1009.2 2.4
19/05:00am 8.7 6.0 2.7 66 2.6 SSW 6 7 3 4 1010.5 1009.1 2.4
19/04:30am 10.3 7.5 1.9 56 3.6 SSE 6 7 3 4 1010.5 1009.1 2.4
19/04:00am 8.5 5.6 2.7 67 2.5 SSW 7 9 4 5 1010.4 1009.0 2.4
19/03:30am 9.2 6.5 3.8 69 2.4 SSW 7 9 4 5 1010.5 1009.1 2.4
19/03:00am 8.5 6.0 3.9 73 2.0 SSW 6 7 3 4 1010.8 1009.4 2.4
19/02:30am 9.5 8.0 3.0 64 2.8 CALM 0 0 0 0 1010.9 1009.5 2.4
19/02:00am 9.4 6.8 3.4 66 2.6 SW 6 7 3 4 1011.1 1009.6 2.4
19/01:30am 10.3 8.2 3.8 64 2.9 SW 4 6 2 3 1011.4 1009.9 2.4
19/01:00am 12.6 10.0 3.3 53 4.2 SSW 6 7 3 4 1011.3 1009.8 2.4
19/12:30am 12.1 8.9 2.8 53 4.1 SW 9 11 5 6 1011.3 1009.8 2.4
19/12:00am 13.6 10.9 2.5 47 5.0 SW 6 7 3 4 1011.4 1009.9 2.4
 
Date/Time
EDT
Temp
°C
App
Temp
°C
Dew
Point
°C
Rel
Hum
%
Delta-T
°C
Wind Press
QNH
hPa
Press
MSL
hPa
Rain since
9am
mm
Dir  Spd
km/h
Gust
km/h
Spd
kts
Gust
kts
18/11:30pm 14.5 11.8 2.4 44 5.4 WSW 6 9 3 5 1011.4 1009.9 2.4
18/11:00pm 15.5 12.2 2.3 41 6.0 WSW 9 13 5 7 1011.1 1009.6 2.4
18/10:30pm 15.9 12.6 2.7 41 6.0 SW 9 15 5 8 1010.8 1009.4 2.4
18/10:00pm 16.1 12.8 2.5 40 6.2 SW 9 13 5 7 1010.8 1009.4 2.4
18/09:30pm 16.8 13.2 2.8 39 6.5 SW 11 15 6 8 1010.4 1009.0 2.4
18/09:00pm 17.8 13.4 2.5 36 7.1 SW 15 20 8 11 1010.0 1008.6 2.4
18/08:30pm 18.5 13.1 2.4 34 7.5 SW 20 28 11 15 1009.6 1008.2 2.4
18/08:00pm 20.1 14.1 3.3 33 8.1 SW 24 37 13 20 1009.3 1007.8 2.4
18/07:30pm 21.8 16.7 3.9 31 8.8 SW 20 32 11 17 1008.9 1007.4 2.4
18/07:00pm 22.5 16.8 3.1 28 9.4 WSW 22 30 12 16 1008.6 1007.1 2.4
18/06:30pm 23.6 18.3 3.0 26 10.1 WSW 20 28 11 15 1008.5 1007.0 2.4
18/06:00pm 25.0 19.3 3.0 24 10.9 WSW 22 37 12 20 1008.4 1006.9 2.4
18/05:30pm 25.4 19.3 2.8 23 11.1 WSW 24 35 13 19 1008.3 1006.8 2.4
18/05:00pm 24.8 18.7 2.9 24 10.8 SW 24 33 13 18 1008.3 1006.8 2.4
18/04:30pm 26.0 19.8 4.5 25 11.0 WSW 26 37 14 20 1008.4 1006.9 2.4
18/04:00pm 25.3 19.5 4.4 26 10.6 WSW 24 35 13 19 1008.6 1007.1 2.4
18/03:30pm 25.5 20.6 7.1 31 9.8 WSW 22 33 12 18 1008.7 1007.2 2.4
18/03:00pm 25.4 20.8 8.0 33 9.4 W 22 37 12 20 1009.2 1007.7 2.4
18/02:30pm 24.9 21.0 9.6 38 8.5 WSW 20 32 11 17 1009.1 1007.6 2.4
18/02:00pm 23.2 19.5 10.3 44 7.2 WSW 20 33 11 18 1009.4 1007.9 2.4
18/01:30pm 22.5 20.2 10.6 47 6.6 WSW 13 22 7 12 1009.4 1007.9 2.4
18/01:00pm 20.0 19.7 12.7 63 4.2 NW 6 11 3 6 1009.8 1008.4 2.4
18/12:30pm 18.6 18.6 14.3 76 2.5 WSW 7 11 4 6 1010.1 1008.7 2.2
18/12:00pm 18.3 17.6 13.2 72 2.9 W 9 17 5 9 1011.4 1009.9 1.2
18/11:30am 19.6 16.1 10.3 55 5.1 SW 19 24 10 13 1010.7 1009.3 0.0
18/11:00am 20.2 16.8 10.6 54 5.3 SW 19 24 10 13 1010.4 1009.0 0.0
18/10:30am 19.8 16.3 10.2 54 5.2 SW 19 28 10 15 1010.4 1009.0 0.0
18/10:00am 19.4 15.7 10.1 55 5.1 WSW 20 28 11 15 1010.3 1008.9 0.0
18/09:30am 18.7 14.5 9.8 56 4.8 WSW 22 30 12 16 1010.2 1008.8 0.0
18/09:00am 18.5 14.7 9.8 57 4.7 SW 20 26 11 14 1010.1 1008.7 0.4
18/08:30am 18.5 16.2 10.3 59 4.4 W 13 20 7 11 1010.1 1008.7 0.4
18/08:00am 17.9 16.0 10.5 62 4.0 SW 11 17 6 9 1009.6 1008.2 0.4
18/07:30am 17.2 16.7 10.8 66 3.5 SW 4 9 2 5 1009.6 1008.2 0.4
18/07:00am 16.8 15.4 10.9 68 3.2 W 9 13 5 7 1009.8 1008.4 0.4
18/06:30am 16.8 15.3 10.4 66 3.4 W 9 13 5 7 1009.4 1007.9 0.4
18/06:00am 16.8 15.5 11.1 69 3.1 WSW 9 15 5 8 1009.2 1007.7 0.4
18/05:30am 17.0 15.2 10.8 67 3.4 WSW 11 15 6 8 1009.8 1008.4 0.4
18/05:00am 17.7 16.7 10.3 62 4.0 N 6 7 3 4 1009.2 1007.7 0.4
18/04:30am 18.9 16.5 8.6 51 5.4 S 11 17 6 9 1009.3 1007.8 0.4
18/04:00am 19.3 16.8 8.3 49 5.8 SSW 11 19 6 10 1008.8 1007.3 0.4
18/03:30am 19.7 16.0 8.1 47 6.1 SSW 17 24 9 13 1009.2 1007.7 0.4
18/03:00am 20.1 17.6 8.1 46 6.3 SSW 11 19 6 10 1008.6 1007.1 0.0
18/02:30am 19.8 17.5 9.1 50 5.7 SSW 11 17 6 9 1008.9 1007.4 0.0
18/02:00am 20.8 16.6 7.4 42 7.0 SSW 19 32 10 17 1008.9 1007.4 0.0
18/01:30am 22.4 17.8 5.8 34 8.5 SW 19 32 10 17 1008.8 1007.3 0.0
18/01:00am 22.7 17.4 5.2 32 8.9 SW 22 30 12 16 1008.7 1007.2 0.0
18/12:30am 23.5 18.7 4.9 30 9.4 SW 19 26 10 14 1008.9 1007.4 0.0
18/12:00am 24.6 20.1 4.4 27 10.2 SSW 17 24 9 13 1008.8 1007.3 0.0
 
Date/Time
EDT
Temp
°C
App
Temp
°C
Dew
Point
°C
Rel
Hum
%
Delta-T
°C
Wind Press
QNH
hPa
Press
MSL
hPa
Rain since
9am
mm
Dir  Spd
km/h
Gust
km/h
Spd
kts
Gust
kts
17/11:30pm 24.6 21.2 3.8 26 10.4 SSW 11 17 6 9 1008.8 1007.3 0.0
17/11:00pm 25.6 21.6 4.7 26 10.7 SW 15 22 8 12 1008.8 1007.3 0.0
17/10:30pm 25.8 23.1 8.8 34 9.3 WSW 13 19 7 10 1008.7 1007.2 0.0
17/10:00pm 25.8 23.8 10.0 37 8.9 SW 11 13 6 7 1008.7 1007.2 0.0
17/09:30pm 27.0 24.6 10.2 35 9.5 SW 13 17 7 9 1008.4 1006.9 0.0
17/09:00pm 27.5 25.9 10.2 34 9.8 SW 9 13 5 7 1008.2 1006.7 0.0
17/08:30pm 28.8 26.1 10.5 32 10.5 SW 15 19 8 10 1007.8 1006.3 0.0
17/08:00pm 30.1 26.5 10.6 30 11.3 SW 20 33 11 18 1007.4 1005.9 0.0
17/07:30pm 32.0 28.3 10.1 26 12.7 WSW 20 28 11 15 1006.8 1005.4 0.0
17/07:00pm 33.5 29.4 10.2 24 13.6 W 22 32 12 17 1006.5 1005.1 0.0
17/06:30pm 34.4 29.0 9.6 22 14.4 W 28 41 15 22 1006.4 1005.0 0.0
17/06:00pm 35.1 30.8 9.5 21 14.9 W 22 35 12 19 1006.4 1005.0 0.0
17/05:30pm 35.2 30.2 8.1 19 15.4 W 24 33 13 18 1006.6 1005.2 0.0
17/05:00pm 35.2 31.3 9.6 21 14.9 W 20 32 11 17 1006.8 1005.4 0.0
17/04:30pm 35.3 31.3 8.9 20 15.2 W 20 33 11 18 1007.0 1005.6 0.0
17/04:00pm 35.0 31.8 10.1 22 14.6 WSW 17 26 9 14 1007.4 1005.9 0.0
17/03:30pm 33.5 29.8 10.2 24 13.6 SW 20 33 11 18 1007.7 1006.2 0.0
17/03:00pm 34.9 31.7 11.3 24 14.1 SW 19 37 10 20 1008.2 1006.7 0.0
17/02:30pm 33.4 29.7 10.1 24 13.6 WSW 20 30 11 16 1008.5 1007.0 0.0
17/02:00pm 33.5 30.0 10.2 24 13.6 SW 19 28 10 15 1008.7 1007.2 0.0
17/01:30pm 34.7 30.6 6.1 17 15.7 WNW 17 30 9 16 1008.7 1007.2 0.0
17/01:00pm 35.6 31.6 6.8 17 16.1 W 17 28 9 15 1008.9 1007.4 0.0
17/12:30pm 35.9 31.0 5.2 15 16.8 W 20 32 11 17 1009.3 1007.8 0.0
17/12:00pm 35.3 32.4 6.6 17 16.0 SW 11 22 6 12 1009.6 1008.2 0.0
17/11:30am 33.9 31.0 6.3 18 15.2 SSE 11 19 6 10 1009.8 1008.4 0.0
17/11:00am 33.4 30.6 5.0 17 15.3 SW 9 15 5 8 1009.9 1008.5 0.0
17/10:30am 32.6 29.3 4.4 17 14.9 SSW 11 19 6 10 1010.0 1008.6 0.0
17/10:00am 31.6 28.3 4.4 18 14.3 SW 11 17 6 9 1009.8 1008.4 0.0
17/09:30am 29.5 26.5 4.2 20 13.1 SSW 9 15 5 8 1009.8 1008.4 0.0
17/09:00am 27.6 25.1 4.0 22 12.1 WSW 6 11 3 6 1009.6 1008.2 0.0
17/08:30am 25.0 23.1 4.7 27 10.3 SE 4 6 2 3 1009.6 1008.2 0.0
17/08:00am 21.9 19.6 4.9 33 8.5 SSW 6 7 3 4 1009.5 1008.1 0.0

Other Formats:

Comma delimited format used in spreadsheet applications
http://www.bom.gov.au/fwo/IDN60801/IDN60801.95722.axf

JavaScript Object Notation format (JSON) in row-major order
http://www.bom.gov.au/fwo/IDN60801/IDN60801.95722.json